Terminal Aerodrome Forecast
Issued by NWS

Home | Current Version | Previous Version | Text Only | Print | Product List | Glossary On
Versions: 1 2 3 4 5 6 7 8 9 10 11 12 13 14 15 16 17 18
000
FTUS45 KRIW 250500
TAFCPR
TAF
KCPR 250528Z 2506/2606 05005KT P6SM BKN090
     FM251200 08006KT P6SM SCT090
     FM252100 07011KT P6SM SCT070 SCT120
     FM252300 08011KT P6SM VCTS SCT070CB BKN120
     FM260500 09008KT P6SM VCSH SCT080 BKN120=

USA.gov is the U.S. government's official web portal to all federal, state and local government web resources and services.